Terminal Aerodrome Forecast
Issued by NWS Charleston, WV

Current Version | Previous Version | Graphics & Text | Print | Product List | Glossary On
Versions: 1 2 3 4 5 6 7 8 9 10 11 12 13 14 15 16 17 18 19 20 21 22 23 24 25 26 27 28 29 30 31 32
000
FTUS41 KRLX 211523 AAD
TAFEKN
TAF AMD
KEKN 211523Z 2115/2212 00000KT 3SM -RA BR SCT005 OVC010
      TEMPO 2115/2118 2SM -RA BR OVC005
     FM211800 00000KT 5SM -RA BR OVC015
     FM211900 00000KT P6SM OVC015
     FM212100 30005KT P6SM BKN025
     FM220600 29004KT P6SM SCT030=

USA.gov is the U.S. government's official web portal to all federal, state and local government web resources and services.